Terminal Aerodrome Forecast
Issued by NWS Portland, OR

Current Version | Previous Version | Text Only | Print | Product List | Glossary On
Versions: 1 2 3 4 5 6 7 8 9 10 11 12 13 14 15 16 17 18 19 20 21 22 23 24 25 26 27 28 29 30
000
FTUS46 KPQR 260529
TAFAST
TAF
KAST 260529Z 2606/2706 VRB03KT P6SM SKC
     FM261200 14003KT 2SM BR BKN003
     FM261500 15006KT 5SM BR BKN005 OVC100
     FM261600 15005KT P6SM OVC080
     FM262000 18011KT 5SM -RA BR OVC025
     FM270200 19008KT P6SM SCT025 OVC035=

USA.gov is the U.S. government's official web portal to all federal, state and local government web resources and services.